Time;durP1;ratioP1;P1;durP2;ratioP2;P2;SDS_P1;SDS_P2;PMS_P1;PMS_P2;Temp;Humidity;BMP_temperature;BMP_pressure;BME280_temperature;BME280_humidity;BME280_pressure;Samples;Min_cycle;Max_cycle;Signal;HPM_P1;HPM_P2
2022/04/25 00:01:21;;;;;;;23.45;15.50;;;7.10;99.90;;;;;;5096411;28;20034;-90
2022/04/25 00:03:47;;;;;;;26.02;16.38;;;7.10;99.90;;;;;;5096393;28;20024;-90
2022/04/25 00:06:13;;;;;;;22.13;16.10;;;7.10;99.90;;;;;;5096711;28;20101;-90
2022/04/25 00:08:39;;;;;;;23.42;15.73;;;7.10;99.90;;;;;;5096519;28;20148;-90
2022/04/25 00:11:05;;;;;;;22.83;16.92;;;7.10;99.90;;;;;;5096499;28;20020;-90
2022/04/25 00:13:31;;;;;;;21.40;15.52;;;7.10;99.90;;;;;;5096531;28;20401;-90
2022/04/25 00:15:56;;;;;;;25.42;15.48;;;7.10;99.90;;;;;;5096252;28;20034;-90
2022/04/25 00:18:22;;;;;;;22.45;15.98;;;7.10;99.90;;;;;;5096725;28;20028;-91
2022/04/25 00:20:49;;;;;;;24.77;16.77;;;7.10;99.90;;;;;;5096578;28;20106;-90
2022/04/25 00:23:15;;;;;;;19.80;15.48;;;7.00;99.90;;;;;;5099243;28;20030;-90
2022/04/25 00:25:41;;;;;;;21.25;15.57;;;7.00;99.90;;;;;;5100068;28;20041;-90
2022/04/25 00:28:07;;;;;;;22.85;16.08;;;7.00;99.90;;;;;;5100235;28;20386;-90
2022/04/25 00:30:33;;;;;;;20.55;15.00;;;7.00;99.90;;;;;;5100104;28;20075;-91
2022/04/25 00:33:00;;;;;;;22.25;16.15;;;7.00;99.90;;;;;;5118273;28;20035;-90
2022/04/25 00:35:26;;;;;;;20.42;15.20;;;6.90;99.90;;;;;;5100119;28;20488;-91
2022/04/25 00:37:53;;;;;;;23.73;15.93;;;6.90;99.90;;;;;;5117960;28;20027;-91
2022/04/25 00:40:20;;;;;;;19.02;15.25;;;6.90;99.90;;;;;;5100026;28;20027;-90
2022/04/25 00:42:46;;;;;;;21.77;15.10;;;6.80;99.90;;;;;;5099858;28;20047;-91
2022/04/25 00:45:13;;;;;;;22.70;15.75;;;6.80;99.90;;;;;;5099796;28;20430;-91
2022/04/25 00:47:40;;;;;;;23.33;15.75;;;6.80;99.90;;;;;;5099610;28;20024;-91
2022/04/25 00:50:08;;;;;;;18.77;14.60;;;6.80;99.90;;;;;;5099936;28;20051;-91
2022/04/25 00:52:34;;;;;;;20.08;14.80;;;6.80;99.90;;;;;;5099849;28;20474;-91
2022/04/25 00:55:08;;;;;;;24.30;16.15;;;6.70;99.90;;;;;;5099974;28;20054;-91
2022/04/25 00:57:36;;;;;;;19.70;13.80;;;6.70;99.90;;;;;;5099783;28;20519;-91
2022/04/25 01:00:05;;;;;;;21.42;15.15;;;6.70;99.90;;;;;;5099461;28;20028;-91
2022/04/25 01:02:31;;;;;;;21.13;14.30;;;6.60;99.90;;;;;;5099331;28;20031;-91
2022/04/25 01:04:57;;;;;;;20.08;15.27;;;6.60;99.90;;;;;;5099336;28;20089;-91
2022/04/25 01:07:22;;;;;;;22.13;15.00;;;6.60;99.90;;;;;;5099503;28;20019;-91
2022/04/25 01:09:48;;;;;;;21.05;15.43;;;6.50;99.90;;;;;;5117642;28;20500;-91
2022/04/25 01:12:14;;;;;;;25.25;15.60;;;6.50;99.90;;;;;;5099420;28;20443;-91
2022/04/25 01:14:39;;;;;;;20.17;14.38;;;6.50;99.90;;;;;;5099310;28;20076;-91
2022/04/25 01:17:05;;;;;;;20.20;14.88;;;6.50;99.90;;;;;;5117181;28;20022;-91
2022/04/25 01:19:32;;;;;;;22.85;16.27;;;6.50;99.90;;;;;;5099265;28;20031;-90
2022/04/25 01:22:00;;;;;;;20.98;14.50;;;6.50;99.90;;;;;;5099007;28;20576;-91
2022/04/25 01:27:17;;;;;;;21.88;15.15;;;6.40;99.90;;;;;;5117316;28;20073;-91
2022/04/25 01:29:53;;;;;;;25.15;15.18;;;6.40;99.90;;;;;;5098681;28;20039;-91
2022/04/25 01:32:22;;;;;;;23.10;15.70;;;6.40;99.90;;;;;;5099046;28;20024;-91
2022/04/25 01:34:48;;;;;;;21.23;14.93;;;6.40;99.90;;;;;;5098493;28;20467;-91
2022/04/25 01:37:15;;;;;;;22.15;16.95;;;6.40;99.90;;;;;;5099003;28;20027;-91
2022/04/25 01:39:50;;;;;;;20.30;14.63;;;6.40;99.90;;;;;;5098658;28;20110;-91
2022/04/25 01:42:17;;;;;;;24.27;15.70;;;6.40;99.90;;;;;;5098625;28;20019;-91
2022/04/25 01:44:43;;;;;;;25.10;16.95;;;6.40;99.90;;;;;;5098204;28;20028;-90
2022/04/25 01:47:09;;;;;;;22.60;15.32;;;6.30;99.90;;;;;;5098768;28;20027;-91
2022/04/25 01:49:36;;;;;;;24.70;16.02;;;6.30;99.90;;;;;;5098808;28;20540;-91
2022/04/25 01:52:24;;;;;;;20.65;15.23;;;6.40;99.90;;;;;;5098997;28;20493;-91
2022/04/25 01:54:50;;;;;;;24.27;16.58;;;6.30;99.90;;;;;;5089130;28;20073;-91
2022/04/25 01:57:16;;;;;;;24.60;16.50;;;6.30;99.90;;;;;;5098430;28;20023;-91
2022/04/25 01:59:43;;;;;;;25.88;17.20;;;6.30;99.90;;;;;;5098511;28;20042;-91
2022/04/25 02:02:11;;;;;;;26.77;17.08;;;6.30;99.90;;;;;;5098334;28;20020;-91
2022/04/25 02:04:37;;;;;;;25.42;17.52;;;6.20;99.90;;;;;;5116782;28;20458;-91
2022/04/25 02:07:03;;;;;;;27.60;17.67;;;6.20;99.90;;;;;;5097895;28;20038;-91
2022/04/25 02:09:29;;;;;;;26.77;17.20;;;6.20;99.90;;;;;;5098248;28;20063;-91
2022/04/25 02:11:55;;;;;;;27.42;17.60;;;6.20;99.90;;;;;;5098179;28;20047;-91
2022/04/25 02:14:20;;;;;;;25.42;16.88;;;6.20;99.90;;;;;;5098028;28;20039;-91
2022/04/25 02:16:46;;;;;;;30.02;18.77;;;6.20;99.90;;;;;;5098126;28;20544;-90
2022/04/25 02:19:12;;;;;;;26.25;17.27;;;6.20;99.90;;;;;;5098226;28;20032;-90
2022/04/25 02:21:38;;;;;;;27.35;17.73;;;6.20;99.90;;;;;;5098557;28;20023;-90
2022/04/25 02:24:04;;;;;;;24.20;16.98;;;6.20;99.90;;;;;;5097851;28;20019;-90
2022/04/25 02:26:31;;;;;;;28.73;17.63;;;6.20;99.90;;;;;;5097881;28;20020;-90
2022/04/25 02:28:57;;;;;;;26.73;17.52;;;6.20;99.90;;;;;;5097639;28;20107;-89
2022/04/25 02:31:24;;;;;;;25.88;17.27;;;6.10;99.90;;;;;;5098047;28;20454;-90
2022/04/25 02:33:50;;;;;;;28.45;17.73;;;6.20;99.90;;;;;;5097953;28;20023;-90
2022/04/25 02:36:16;;;;;;;29.05;17.85;;;6.20;99.90;;;;;;5097710;28;20508;-90
2022/04/25 02:38:42;;;;;;;27.77;17.60;;;6.20;99.90;;;;;;5097360;28;20111;-90
2022/04/25 02:41:11;;;;;;;32.67;18.40;;;6.20;99.90;;;;;;5097630;28;20500;-90
2022/04/25 02:43:42;;;;;;;30.08;18.98;;;6.30;99.90;;;;;;5097559;28;20034;-90
2022/04/25 02:46:11;;;;;;;34.50;21.27;;;6.30;99.90;;;;;;5096935;28;20107;-90
2022/04/25 02:48:37;;;;;;;30.85;19.00;;;6.30;99.90;;;;;;5097737;28;20495;-90
2022/04/25 02:51:04;;;;;;;34.15;19.25;;;6.30;99.90;;;;;;5098055;28;20031;-90
2022/04/25 02:53:31;;;;;;;32.75;19.50;;;6.30;99.90;;;;;;5097510;28;20020;-90
2022/04/25 02:55:57;;;;;;;30.77;20.13;;;6.30;99.90;;;;;;5097415;28;20537;-90
2022/04/25 02:58:24;;;;;;;34.58;20.13;;;6.40;99.90;;;;;;5097458;28;20062;-90
2022/04/25 03:00:50;;;;;;;32.55;19.73;;;6.40;99.90;;;;;;5097284;28;20119;-90
2022/04/25 03:03:17;;;;;;;33.30;21.48;;;6.40;99.90;;;;;;5097118;28;20042;-90
2022/04/25 03:05:45;;;;;;;35.15;20.73;;;6.50;99.90;;;;;;5097087;28;20351;-90
2022/04/25 03:08:16;;;;;;;30.17;19.85;;;6.50;99.90;;;;;;5097081;28;20131;-90
2022/04/25 03:10:45;;;;;;;31.80;19.60;;;6.50;99.90;;;;;;5097162;28;20084;-90
2022/04/25 03:13:12;;;;;;;30.27;19.77;;;6.50;99.90;;;;;;5097178;28;20123;-91
2022/04/25 03:15:41;;;;;;;32.30;21.65;;;6.60;99.90;;;;;;5097313;28;20034;-90
2022/04/25 03:18:08;;;;;;;32.53;21.25;;;6.60;99.90;;;;;;5097119;28;20073;-90
2022/04/25 03:20:34;;;;;;;31.90;20.05;;;6.60;99.90;;;;;;5097044;28;20027;-89
2022/04/25 03:23:00;;;;;;;31.75;20.73;;;6.70;99.90;;;;;;5096723;28;20023;-89
2022/04/25 03:25:26;;;;;;;28.55;19.63;;;6.70;99.90;;;;;;5096886;28;20030;-90
2022/04/25 03:27:51;;;;;;;31.08;19.77;;;6.70;99.90;;;;;;5097079;28;20019;-90
2022/04/25 03:30:18;;;;;;;31.58;19.63;;;6.80;99.90;;;;;;5096644;28;20071;-90
2022/04/25 03:32:47;;;;;;;29.67;19.98;;;6.90;99.90;;;;;;5096724;28;20015;-90
2022/04/25 03:35:14;;;;;;;31.55;20.10;;;6.90;99.90;;;;;;5096745;28;20027;-90
2022/04/25 03:37:41;;;;;;;29.05;19.73;;;7.00;99.90;;;;;;5096946;28;20452;-90
2022/04/25 03:40:09;;;;;;;28.60;19.25;;;7.10;99.90;;;;;;5096898;28;20027;-90
2022/04/25 03:42:36;;;;;;;29.98;19.85;;;7.20;99.90;;;;;;5097011;28;20076;-90
2022/04/25 03:45:03;;;;;;;31.55;20.30;;;7.30;99.90;;;;;;5096540;28;20385;-90
2022/04/25 03:47:29;;;;;;;32.05;20.90;;;7.30;99.90;;;;;;5096930;28;20084;-90
2022/04/25 03:49:56;;;;;;;33.55;21.85;;;7.40;99.90;;;;;;5096795;28;20024;-89
2022/04/25 03:52:22;;;;;;;31.17;21.75;;;7.60;99.90;;;;;;5096633;28;20114;-90
2022/04/25 03:57:32;;;;;;;38.33;22.15;;;7.70;99.90;;;;;;5118198;28;20046;-90
2022/04/25 03:59:58;;;;;;;29.63;20.83;;;7.80;99.90;;;;;;5100867;28;20541;-89
2022/04/25 04:02:23;;;;;;;33.78;21.55;;;7.90;99.90;;;;;;5100744;28;20062;-89
2022/04/25 04:04:49;;;;;;;40.88;23.92;;;8.00;99.90;;;;;;5100552;28;20046;-89
2022/04/25 04:07:15;;;;;;;32.92;23.27;;;8.10;99.90;;;;;;5100541;28;20076;-90
2022/04/25 04:09:47;;;;;;;32.97;22.33;;;8.20;99.90;;;;;;5100401;28;20111;-90
2022/04/25 04:12:18;;;;;;;38.63;24.17;;;8.30;99.90;;;;;;5100533;28;20081;-90
2022/04/25 04:14:44;;;;;;;38.33;24.48;;;8.40;99.90;;;;;;5100341;28;20028;-90
2022/04/25 04:17:10;;;;;;;44.33;26.98;;;8.50;99.90;;;;;;5100535;28;20031;-90
2022/04/25 04:19:36;;;;;;;50.35;29.77;;;8.70;99.90;;;;;;5100435;28;20020;-89
2022/04/25 04:22:03;;;;;;;46.42;28.50;;;8.80;99.90;;;;;;5100336;28;20466;-90
2022/04/25 04:24:31;;;;;;;46.50;29.75;;;9.00;99.90;;;;;;5100015;28;20114;-90
2022/04/25 04:26:58;;;;;;;43.33;27.63;;;9.20;99.90;;;;;;5100092;28;20019;-90
2022/04/25 04:29:23;;;;;;;37.90;26.35;;;9.30;99.90;;;;;;5099997;28;20497;-90
2022/04/25 04:31:49;;;;;;;38.40;26.23;;;9.40;99.90;;;;;;5100105;28;20034;-90
2022/04/25 04:34:15;;;;;;;36.72;23.67;;;9.50;99.90;;;;;;5118210;28;20102;-90
2022/04/25 04:36:41;;;;;;;36.50;23.42;;;9.70;99.90;;;;;;5099921;28;20485;-90
2022/04/25 04:39:06;;;;;;;28.85;20.75;;;9.80;99.90;;;;;;5099997;28;20462;-90
2022/04/25 04:41:32;;;;;;;30.05;19.80;;;10.00;99.90;;;;;;5099866;28;20466;-90
2022/04/25 04:43:58;;;;;;;33.53;21.35;;;10.10;99.90;;;;;;5117758;28;20020;-90
2022/04/25 04:46:26;;;;;;;29.50;21.10;;;10.30;99.90;;;;;;5100093;28;20073;-90
2022/04/25 04:48:52;;;;;;;25.58;17.38;;;10.40;99.90;;;;;;5100053;28;20484;-90
2022/04/25 04:51:18;;;;;;;21.67;16.98;;;10.50;99.90;;;;;;5099940;28;20019;-90
2022/04/25 04:53:43;;;;;;;21.30;15.07;;;10.60;99.90;;;;;;5099660;28;20031;-90
2022/04/25 04:56:09;;;;;;;20.50;14.30;;;10.80;99.90;;;;;;5099491;28;20042;-90
2022/04/25 04:58:35;;;;;;;16.85;12.60;;;10.90;99.90;;;;;;5099565;28;20059;-90
2022/04/25 05:01:01;;;;;;;14.27;10.98;;;11.00;99.90;;;;;;5099928;28;20024;-90
2022/04/25 05:03:27;;;;;;;15.18;10.93;;;11.20;99.90;;;;;;5099574;28;20030;-90
2022/04/25 05:05:54;;;;;;;16.10;11.05;;;11.20;99.90;;;;;;5099302;28;20028;-90
2022/04/25 05:08:20;;;;;;;17.08;11.55;;;11.40;99.90;;;;;;5098659;28;20047;-90
2022/04/25 05:10:46;;;;;;;23.25;12.60;;;11.40;99.90;;;;;;5099279;28;20020;-90
2022/04/25 05:13:12;;;;;;;24.38;12.95;;;11.60;99.90;;;;;;5099449;28;20172;-90
2022/04/25 05:15:37;;;;;;;47.83;18.25;;;11.60;99.90;;;;;;5099432;28;20106;-90
2022/04/25 05:18:03;;;;;;;87.85;26.60;;;11.80;99.90;;;;;;5099152;28;20118;-90
2022/04/25 05:20:29;;;;;;;78.95;25.38;;;11.90;99.90;;;;;;5098985;28;20028;-90
2022/04/25 05:22:56;;;;;;;43.85;16.95;;;12.10;99.90;;;;;;5099138;28;20109;-90
2022/04/25 05:25:24;;;;;;;39.42;15.88;;;12.20;99.90;;;;;;5117414;28;20061;-90
2022/04/25 05:27:52;;;;;;;36.80;15.52;;;12.40;99.90;;;;;;5098934;28;20024;-90
2022/04/25 05:30:19;;;;;;;29.00;13.55;;;12.50;99.90;;;;;;5098838;28;20555;-90
2022/04/25 05:32:47;;;;;;;34.97;15.73;;;12.60;99.90;;;;;;5117000;28;20020;-91
2022/04/25 05:35:17;;;;;;;32.53;13.63;;;12.70;99.90;;;;;;5098955;28;20384;-91
2022/04/25 05:37:43;;;;;;;29.88;14.75;;;12.90;99.90;;;;;;5098812;28;20023;-91
2022/04/25 05:40:11;;;;;;;28.33;14.07;;;13.00;99.90;;;;;;5098750;28;20435;-91
2022/04/25 05:42:39;;;;;;;23.13;13.50;;;13.10;99.90;;;;;;5098808;28;20111;-91
2022/04/25 05:45:05;;;;;;;22.08;12.13;;;13.20;99.90;;;;;;5098422;28;20032;-91
2022/04/25 05:47:33;;;;;;;22.70;11.95;;;13.30;99.90;;;;;;5098884;28;20020;-90
2022/04/25 05:52:44;;;;;;;26.17;13.65;;;13.60;99.90;;;;;;5116963;28;20115;-91
2022/04/25 05:55:10;;;;;;;26.30;12.57;;;13.70;99.90;;;;;;5098466;28;20055;-91
2022/04/25 05:57:36;;;;;;;27.35;14.82;;;13.80;99.90;;;;;;5098538;28;20035;-91
2022/04/25 06:00:04;;;;;;;36.97;16.42;;;14.00;99.90;;;;;;5098649;28;20122;-91
2022/04/25 06:02:29;;;;;;;35.22;15.77;;;14.10;99.90;;;;;;5098410;28;20024;-91
2022/04/25 06:04:55;;;;;;;33.80;14.52;;;14.20;99.90;;;;;;5098283;28;20077;-91
2022/04/25 06:07:21;;;;;;;38.15;15.75;;;14.30;99.90;;;;;;5098441;28;20105;-91
2022/04/25 06:09:46;;;;;;;44.53;15.13;;;14.40;99.90;;;;;;5100620;28;20019;-91
2022/04/25 06:12:12;;;;;;;34.13;14.80;;;14.50;99.90;;;;;;5098758;28;20061;-91
2022/04/25 06:14:38;;;;;;;24.52;11.85;;;14.60;99.90;;;;;;5098235;28;20081;-91
2022/04/25 06:17:03;;;;;;;22.95;11.75;;;14.70;99.90;;;;;;5098086;28;20027;-91
2022/04/25 06:19:29;;;;;;;27.25;13.25;;;14.80;99.90;;;;;;5097046;28;20059;-91
2022/04/25 06:21:55;;;;;;;24.63;11.98;;;14.90;99.90;;;;;;5097842;28;20466;-92
2022/04/25 06:24:20;;;;;;;25.30;12.75;;;15.10;99.90;;;;;;5097770;28;20019;-91
2022/04/25 06:26:49;;;;;;;25.27;12.85;;;15.10;99.90;;;;;;5097959;28;20023;-91
2022/04/25 06:29:16;;;;;;;23.75;11.85;;;15.30;99.90;;;;;;5097559;28;20067;-91
2022/04/25 06:31:42;;;;;;;26.13;12.38;;;15.40;99.90;;;;;;5115799;28;20019;-91
2022/04/25 06:34:08;;;;;;;26.48;12.50;;;15.40;99.90;;;;;;5097981;28;20046;-93
2022/04/25 06:36:36;;;;;;;26.08;11.23;;;15.60;99.90;;;;;;5098078;28;20416;-91
2022/04/25 06:39:02;;;;;;;22.42;11.75;;;15.70;99.90;;;;;;5097759;28;20034;-91
2022/04/25 06:41:28;;;;;;;19.73;10.52;;;15.80;99.90;;;;;;5097602;28;20060;-92
2022/04/25 06:43:54;;;;;;;22.50;12.07;;;16.00;99.90;;;;;;5097441;28;20057;-92
2022/04/25 06:46:20;;;;;;;16.80;10.32;;;16.10;99.70;;;;;;5097495;28;20027;-92
2022/04/25 06:49:19;;;;;;;23.35;12.23;;;16.30;99.50;;;;;;5097440;28;20050;-92
2022/04/25 06:51:31;;;;;;;22.63;12.82;;;16.40;99.10;;;;;;5115457;28;20374;-92
2022/04/25 06:53:58;;;;;;;23.15;12.27;;;16.60;98.70;;;;;;5097391;28;20027;-91
2022/04/25 06:56:24;;;;;;;23.75;12.25;;;16.80;98.30;;;;;;5097378;28;20114;-92
2022/04/25 06:58:49;;;;;;;23.38;11.80;;;16.90;98.20;;;;;;5097275;28;20100;-91
2022/04/25 07:01:15;;;;;;;26.17;12.70;;;17.00;98.10;;;;;;5097338;28;20161;-91
2022/04/25 07:03:41;;;;;;;23.98;11.38;;;17.10;98.00;;;;;;5097289;28;20091;-92
2022/04/25 07:06:07;;;;;;;20.38;10.20;;;17.20;97.80;;;;;;5097096;28;20027;-92
2022/04/25 07:08:33;;;;;;;19.10;10.00;;;17.40;97.70;;;;;;5097217;28;20458;-91
2022/04/25 07:10:59;;;;;;;15.90;10.15;;;17.50;97.20;;;;;;5097057;28;20031;-91
2022/04/25 07:13:25;;;;;;;20.17;10.80;;;17.70;97.00;;;;;;5097152;28;20034;-91
2022/04/25 07:15:51;;;;;;;21.13;10.90;;;17.80;96.80;;;;;;5097132;28;20020;-92
2022/04/25 07:18:17;;;;;;;25.20;11.50;;;17.90;96.50;;;;;;5097219;28;20023;-92
2022/04/25 07:20:43;;;;;;;31.10;12.98;;;18.00;96.40;;;;;;5096885;28;20115;-91
2022/04/25 07:28:48;;;;;;;20.60;10.40;;;18.30;95.70;;;;;;5115292;28;20132;-91
2022/04/25 07:28:48;;;;;;;16.90;9.02;;;18.50;95.40;;;;;;5114837;28;20047;-91
2022/04/25 07:31:18;;;;;;;14.48;8.88;;;18.60;95.40;;;;;;5096671;28;20069;-92
2022/04/25 07:33:45;;;;;;;12.48;8.63;;;18.70;95.10;;;;;;5096883;28;20032;-92
2022/04/25 07:36:12;;;;;;;10.30;7.13;;;18.90;95.00;;;;;;5096743;28;20035;-90
2022/04/25 07:38:39;;;;;;;12.05;6.90;;;19.20;93.00;;;;;;5096998;28;20030;-91
2022/04/25 07:41:07;;;;;;;9.25;6.28;;;19.40;92.40;;;;;;5096816;28;20061;-92
2022/04/25 07:43:34;;;;;;;9.23;5.78;;;19.50;91.90;;;;;;5097581;28;20373;-91
2022/04/25 07:46:00;;;;;;;10.25;6.45;;;19.60;91.30;;;;;;5096834;28;20023;-91
2022/04/25 07:48:26;;;;;;;8.60;5.90;;;19.70;89.50;;;;;;5096734;28;20027;-92
2022/04/25 07:50:51;;;;;;;6.53;5.82;;;19.80;88.90;;;;;;5096495;28;20020;-92
2022/04/25 07:53:17;;;;;;;8.60;6.10;;;19.90;89.70;;;;;;5096665;28;20031;-93
2022/04/25 07:55:43;;;;;;;12.60;5.97;;;20.00;87.40;;;;;;5096938;28;20073;-93
2022/04/25 07:58:08;;;;;;;9.50;6.32;;;19.90;86.80;;;;;;5096886;28;20031;-92
2022/04/25 08:00:35;;;;;;;7.85;6.57;;;20.00;86.80;;;;;;5096750;28;20118;-93
2022/04/25 08:03:01;;;;;;;7.53;5.57;;;20.10;86.20;;;;;;5096945;28;20051;-93
2022/04/25 08:05:27;;;;;;;12.43;5.90;;;20.10;86.10;;;;;;5096534;28;20526;-91
2022/04/25 08:07:53;;;;;;;8.73;5.75;;;20.20;85.00;;;;;;5096419;28;20069;-92
2022/04/25 08:10:19;;;;;;;7.18;5.75;;;20.30;84.10;;;;;;5096527;28;20062;-92
2022/04/25 08:18:13;;;;;;;11.32;5.45;;;20.50;82.10;;;;;;5115025;28;20080;-90
2022/04/25 08:20:44;;;;;;;9.45;5.93;;;20.50;82.20;;;;;;5096454;28;20035;-92
2022/04/25 08:23:13;;;;;;;9.45;5.63;;;20.60;82.00;;;;;;5096274;28;20016;-92
2022/04/25 08:25:40;;;;;;;6.88;5.50;;;20.70;80.90;;;;;;5096408;28;20034;-93
2022/04/25 08:28:07;;;;;;;7.18;5.38;;;20.80;80.70;;;;;;5096327;28;20016;-93
2022/04/25 08:30:33;;;;;;;12.10;6.40;;;20.90;79.50;;;;;;5096415;28;20118;-92
2022/04/25 08:32:59;;;;;;;11.52;6.47;;;20.90;79.50;;;;;;5096243;28;20023;-93
2022/04/25 08:35:25;;;;;;;9.43;5.90;;;20.90;78.50;;;;;;5096295;28;20047;-88
2022/04/25 08:37:51;;;;;;;6.97;5.63;;;20.90;78.70;;;;;;5096454;28;20348;-91
2022/04/25 08:40:17;;;;;;;6.68;5.65;;;21.00;77.70;;;;;;5096249;28;20031;-92
2022/04/25 08:42:43;;;;;;;9.27;6.00;;;21.10;76.50;;;;;;5096405;28;20027;-89
2022/04/25 08:45:10;;;;;;;9.38;6.20;;;21.20;77.30;;;;;;5099901;28;20027;-86
2022/04/25 08:47:59;;;;;;;8.77;4.80;;;21.30;77.30;;;;;;5099905;28;20052;-90
2022/04/25 08:50:26;;;;;;;10.68;5.57;;;21.30;74.20;;;;;;5099778;28;20538;-93
2022/04/25 08:52:53;;;;;;;6.07;4.40;;;21.40;72.60;;;;;;5099853;28;20100;-91
2022/04/25 08:55:20;;;;;;;7.80;4.85;;;21.50;71.10;;;;;;5099707;28;20606;-90
2022/04/25 08:57:47;;;;;;;8.63;4.57;;;21.50;72.00;;;;;;5099761;28;20076;-90
2022/04/25 09:00:15;;;;;;;7.57;5.03;;;21.60;70.90;;;;;;5099488;28;20540;-91
2022/04/25 09:02:40;;;;;;;7.63;4.80;;;21.60;70.80;;;;;;5099663;28;20497;-92
2022/04/25 09:05:07;;;;;;;11.18;5.05;;;21.70;71.40;;;;;;5099436;28;20019;-91
2022/04/25 09:07:38;;;;;;;9.10;5.10;;;21.70;70.70;;;;;;5099275;28;20122;-88
2022/04/25 09:10:08;;;;;;;7.60;4.43;;;21.80;70.80;;;;;;5099568;28;20019;-93
2022/04/25 09:12:38;;;;;;;7.72;4.85;;;21.90;71.00;;;;;;5099540;28;20488;-86
2022/04/25 09:15:08;;;;;;;5.82;4.70;;;21.90;70.30;;;;;;5099214;28;20038;-91
2022/04/25 09:17:37;;;;;;;7.00;4.40;;;22.00;69.50;;;;;;5099307;28;20423;-92
2022/04/25 09:20:03;;;;;;;7.53;4.68;;;22.00;69.20;;;;;;5099345;28;20030;-88
2022/04/25 09:22:39;;;;;;;8.13;4.60;;;22.00;69.30;;;;;;5099359;28;20478;-86
2022/04/25 09:25:13;;;;;;;7.20;4.75;;;22.10;67.90;;;;;;5098960;28;20035;-87
2022/04/25 09:27:41;;;;;;;13.80;5.10;;;22.10;68.10;;;;;;5099083;28;20114;-91
2022/04/25 09:30:22;;;;;;;7.00;4.95;;;22.10;67.60;;;;;;5098860;28;20044;-87
2022/04/25 09:32:52;;;;;;;7.10;4.60;;;22.10;67.10;;;;;;5099040;28;20065;-89
2022/04/25 09:35:32;;;;;;;6.50;4.40;;;22.20;68.10;;;;;;5098813;28;20062;-89
2022/04/25 09:38:00;;;;;;;;;;;22.30;67.30;;;;;;5099412;28;20063;-91
2022/04/25 09:40:29;;;;;;;5.47;4.45;;;22.20;67.90;;;;;;5098792;28;19904;-91
2022/04/25 09:43:13;;;;;;;6.70;4.60;;;22.30;68.30;;;;;;5098803;28;20031;-88
2022/04/25 09:45:42;;;;;;;7.13;4.55;;;22.50;67.90;;;;;;5098544;28;20035;-88
2022/04/25 09:48:20;;;;;;;6.25;4.25;;;22.70;65.90;;;;;;5098659;28;20031;-90
2022/04/25 09:51:07;;;;;;;7.28;4.20;;;22.60;67.10;;;;;;5098432;28;20028;-90
2022/04/25 09:53:49;;;;;;;8.80;4.47;;;22.60;66.00;;;;;;5098608;28;20050;-92
2022/04/25 09:56:20;;;;;;;7.93;4.53;;;22.50;66.40;;;;;;5098705;28;20073;-92
2022/04/25 09:59:00;;;;;;;8.15;4.03;;;22.50;66.50;;;;;;5098483;28;20057;-89
2022/04/25 10:01:26;;;;;;;6.38;3.95;;;22.60;65.70;;;;;;5098429;28;20035;-91
2022/04/25 10:03:52;;;;;;;8.05;4.57;;;22.60;65.50;;;;;;5098328;28;20032;-91
2022/04/25 10:06:19;;;;;;;5.57;4.40;;;22.60;65.30;;;;;;5098277;28;20061;-91
2022/04/25 10:08:45;;;;;;;7.20;4.13;;;22.70;65.30;;;;;;5098293;28;20107;-91
2022/04/25 10:11:13;;;;;;;6.00;3.78;;;22.70;64.40;;;;;;5098325;28;20120;-90
2022/04/25 10:13:39;;;;;;;5.65;3.60;;;22.80;64.50;;;;;;5098118;28;20043;-89
2022/04/25 10:16:05;;;;;;;7.88;4.20;;;22.80;64.00;;;;;;5098176;28;20047;-88
2022/04/25 10:18:34;;;;;;;5.50;3.28;;;22.90;64.30;;;;;;5097826;28;20023;-90
2022/04/25 10:21:01;;;;;;;9.32;4.20;;;22.90;64.50;;;;;;5098249;28;20019;-92
2022/04/25 10:23:27;;;;;;;8.13;4.03;;;23.00;64.00;;;;;;5098367;28;20028;-92
2022/04/25 10:25:56;;;;;;;5.22;3.83;;;23.00;64.10;;;;;;5098194;28;20111;-91
2022/04/25 10:28:33;;;;;;;9.88;4.10;;;23.00;63.30;;;;;;5098064;28;20122;-91
2022/04/25 10:31:02;;;;;;;6.35;3.42;;;23.20;63.70;;;;;;5097696;28;20043;-90
2022/04/25 10:33:47;;;;;;;5.57;3.77;;;23.40;62.60;;;;;;5097731;28;20027;-90
2022/04/25 10:36:38;;;;;;;5.50;3.40;;;23.50;63.00;;;;;;5097747;28;20034;-90
2022/04/25 10:39:27;;;;;;;7.38;4.40;;;23.50;62.00;;;;;;5097857;28;20024;-90
2022/04/25 10:44:37;;;;;;;5.10;3.40;;;23.50;61.60;;;;;;5115587;28;20451;-88
2022/04/25 10:47:05;;;;;;;4.85;3.55;;;23.50;60.70;;;;;;5097679;28;20051;-92
2022/04/25 10:49:40;;;;;;;7.85;4.25;;;23.60;61.20;;;;;;5097589;28;20024;-90
2022/04/25 10:52:32;;;;;;;4.78;3.55;;;23.60;61.80;;;;;;5097711;28;20073;-92
2022/04/25 10:55:12;;;;;;;6.53;3.50;;;23.60;61.00;;;;;;5097348;28;20029;-90
2022/04/25 10:58:01;;;;;;;6.05;4.10;;;23.60;60.60;;;;;;5098076;28;20156;-92
2022/04/25 11:00:39;;;;;;;5.22;3.38;;;23.80;61.80;;;;;;5096979;28;20016;-89
2022/04/25 11:03:19;;;;;;;5.22;3.20;;;23.90;60.30;;;;;;5097344;28;20039;-92
2022/04/25 11:05:49;;;;;;;5.47;3.40;;;23.90;60.10;;;;;;5096732;28;20114;-92
2022/04/25 11:08:24;;;;;;;5.63;3.63;;;23.90;60.00;;;;;;5097167;28;20028;-88
2022/04/25 11:10:51;;;;;;;5.22;3.45;;;24.00;58.60;;;;;;5097003;28;20359;-90
2022/04/25 11:13:18;;;;;;;4.15;3.00;;;24.10;57.90;;;;;;5097358;28;20470;-87
2022/04/25 11:15:49;;;;;;;6.78;3.08;;;24.10;58.40;;;;;;5097112;28;20077;-92
2022/04/25 11:18:33;;;;;;;10.35;4.25;;;24.10;58.20;;;;;;5097230;28;20055;-90
2022/04/25 11:20:59;;;;;;;6.07;3.72;;;24.10;58.20;;;;;;5097053;28;20028;-92
2022/04/25 11:23:28;;;;;;;8.07;3.58;;;24.10;58.60;;;;;;5096810;28;20023;-93
2022/04/25 11:25:59;;;;;;;7.43;3.22;;;24.10;58.90;;;;;;5097038;28;20015;-93
2022/04/25 11:28:26;;;;;;;5.13;3.35;;;24.10;58.30;;;;;;5096612;28;20021;-89
2022/04/25 11:31:14;;;;;;;11.55;4.22;;;24.30;58.00;;;;;;5096883;28;20015;-90
2022/04/25 11:33:41;;;;;;;6.07;4.03;;;24.30;56.80;;;;;;5096888;28;20078;-90
2022/04/25 11:36:08;;;;;;;9.30;4.03;;;24.30;57.50;;;;;;5096632;28;20023;-92
2022/04/25 11:41:50;;;;;;;7.38;3.47;;;24.30;57.20;;;;;;5052558;28;20037;-91
2022/04/25 11:44:16;;;;;;;7.28;3.90;;;24.20;56.70;;;;;;5052340;28;20028;-92
2022/04/25 11:46:42;;;;;;;7.00;3.58;;;24.30;56.70;;;;;;5074772;28;20382;-92
2022/04/25 11:49:09;;;;;;;5.28;3.25;;;24.20;55.90;;;;;;5115226;28;20435;-87
2022/04/25 11:51:39;;;;;;;5.10;3.00;;;24.20;55.30;;;;;;5096641;28;20016;-91
2022/04/25 11:54:06;;;;;;;7.30;3.15;;;24.20;55.50;;;;;;5096873;28;20024;-92
2022/04/25 11:56:35;;;;;;;6.82;3.28;;;24.30;55.70;;;;;;5096612;28;20046;-93
2022/04/25 11:59:06;;;;;;;4.55;2.80;;;24.50;55.10;;;;;;5096484;28;20051;-89
2022/04/25 12:01:39;;;;;;;5.45;3.10;;;24.70;54.40;;;;;;5096601;28;20023;-91
2022/04/25 12:04:33;;;;;;;4.80;3.78;;;24.90;54.10;;;;;;5096573;28;20023;-91
2022/04/25 12:07:03;;;;;;;3.17;2.60;;;25.30;53.70;;;;;;5097009;28;20135;-92
2022/04/25 12:15:35;;;;;;;4.43;3.08;;;28.50;50.90;;;;;;5115019;28;20066;-93
2022/04/25 12:18:30;;;;;;;4.22;2.95;;;29.70;48.80;;;;;;5097094;28;20477;-93
2022/04/25 12:21:08;;;;;;;2.90;2.60;;;30.50;47.60;;;;;;5083858;28;20031;-91
2022/04/25 12:23:36;;;;;;;3.03;2.70;;;30.70;47.30;;;;;;5100252;28;20024;-91
2022/04/25 12:26:03;;;;;;;4.65;2.67;;;30.80;46.30;;;;;;5100216;28;20019;-89
2022/04/25 12:28:37;;;;;;;3.35;2.50;;;31.00;45.50;;;;;;5100164;28;20554;-90
2022/04/25 12:31:10;;;;;;;3.30;2.47;;;31.50;45.10;;;;;;5100156;28;20111;-90
2022/04/25 12:33:41;;;;;;;3.13;2.47;;;32.00;44.80;;;;;;5100067;28;20080;-92
2022/04/25 12:36:12;;;;;;;3.97;2.50;;;32.20;44.90;;;;;;5100105;28;20023;-92
2022/04/25 12:38:42;;;;;;;4.78;3.00;;;32.80;44.70;;;;;;5100091;28;20084;-90
2022/04/25 12:41:10;;;;;;;3.40;2.60;;;33.40;43.80;;;;;;5099869;28;20088;-91
2022/04/25 12:43:43;;;;;;;4.07;2.40;;;33.50;42.60;;;;;;5099895;28;20051;-90
2022/04/25 12:46:10;;;;;;;4.65;2.80;;;32.90;43.10;;;;;;5099947;28;20024;-89
2022/04/25 12:48:54;;;;;;;2.55;2.35;;;32.40;43.70;;;;;;5099697;28;20019;-92
2022/04/25 12:51:29;;;;;;;5.28;2.60;;;32.70;43.00;;;;;;5099650;28;20045;-86
2022/04/25 12:53:55;;;;;;;4.22;2.58;;;33.10;42.10;;;;;;5117834;28;20035;-91
2022/04/25 12:56:29;;;;;;;3.80;2.90;;;32.50;42.70;;;;;;5099679;28;20028;-90
2022/04/25 12:58:55;;;;;;;4.85;3.00;;;31.60;42.90;;;;;;5099757;28;20019;-90
2022/04/25 13:01:34;;;;;;;3.45;2.63;;;30.80;43.80;;;;;;5100140;28;20111;-91
2022/04/25 13:04:13;;;;;;;7.38;2.50;;;30.10;44.60;;;;;;5099498;28;20031;-91
2022/04/25 13:06:42;;;;;;;3.50;2.75;;;29.80;45.50;;;;;;5099604;28;20032;-91
2022/04/25 13:09:08;;;;;;;;;;;30.20;45.50;;;;;;5100062;28;20368;-88
2022/04/25 13:11:34;;;;;;;4.63;3.00;;;31.00;45.20;;;;;;5099472;28;19915;-90
2022/04/25 13:14:01;;;;;;;4.70;2.92;;;31.60;43.80;;;;;;5099256;28;20035;-90